createdAt,value
2022-10-19T00:01:36.616Z,0.60
2022-10-19T00:04:44.911Z,0.70
2022-10-19T00:07:54.483Z,0.55
2022-10-19T00:11:01.888Z,0.70
2022-10-19T00:14:09.839Z,0.70
2022-10-19T00:17:15.000Z,0.80
2022-10-19T00:20:19.933Z,0.70
2022-10-19T00:23:25.090Z,0.70
2022-10-19T00:26:30.669Z,0.70
2022-10-19T00:29:40.643Z,0.50
2022-10-19T00:32:46.685Z,0.68
2022-10-19T00:35:53.357Z,0.57
2022-10-19T00:38:59.184Z,0.77
2022-10-19T00:42:05.283Z,1.55
2022-10-19T00:45:18.266Z,3.20
2022-10-19T00:48:34.920Z,3.75
2022-10-19T00:51:54.000Z,4.60
2022-10-19T00:54:59.578Z,4.55
2022-10-19T00:58:05.610Z,5.05
2022-10-19T01:01:16.193Z,5.53
2022-10-19T01:04:22.880Z,6.10
2022-10-19T01:07:28.339Z,5.53
2022-10-19T01:10:46.654Z,5.40
2022-10-19T01:14:14.425Z,5.55
2022-10-19T01:17:41.957Z,5.72
2022-10-19T01:21:19.232Z,4.78
2022-10-19T01:25:10.071Z,5.20
2022-10-19T01:28:42.287Z,5.32
2022-10-19T01:31:53.110Z,5.30
2022-10-19T01:35:30.988Z,6.53
2022-10-19T01:38:52.748Z,6.80
2022-10-19T01:42:07.880Z,6.18
2022-10-19T01:45:26.058Z,6.05
2022-10-19T01:48:35.964Z,6.18
2022-10-19T01:51:47.245Z,6.18
2022-10-19T01:54:57.538Z,6.45
2022-10-19T01:58:09.547Z,6.70
2022-10-19T02:01:17.657Z,7.05
2022-10-19T02:04:27.379Z,7.20
2022-10-19T02:07:33.267Z,6.78
2022-10-19T02:10:40.660Z,6.45
2022-10-19T02:13:47.122Z,6.30
2022-10-19T02:17:07.539Z,6.45
2022-10-19T02:20:13.223Z,6.40
2022-10-19T02:23:22.513Z,5.70
2022-10-19T02:26:27.561Z,6.07
2022-10-19T02:29:34.062Z,5.40
2022-10-19T02:32:39.218Z,4.85
2022-10-19T02:35:44.806Z,3.55
2022-10-19T02:38:49.770Z,3.00
2022-10-19T02:42:34.701Z,3.05
2022-10-19T02:45:56.635Z,3.33
2022-10-19T02:49:03.300Z,3.60
2022-10-19T02:52:10.826Z,2.92
2022-10-19T02:55:16.367Z,2.80
2022-10-19T02:58:22.540Z,3.35
2022-10-19T03:01:28.098Z,3.47
2022-10-19T03:04:33.996Z,3.78
2022-10-19T03:07:39.332Z,4.07
2022-10-19T03:10:44.454Z,3.72
2022-10-19T03:13:49.260Z,3.60
2022-10-19T03:16:56.146Z,3.50
2022-10-19T03:20:01.750Z,3.80
2022-10-19T03:23:06.576Z,4.07
2022-10-19T03:26:16.366Z,4.43
2022-10-19T03:29:21.511Z,4.45
2022-10-19T03:32:26.913Z,4.38
2022-10-19T03:35:32.236Z,4.60
2022-10-19T03:38:37.466Z,5.47
2022-10-19T03:41:42.552Z,5.88
2022-10-19T03:44:47.819Z,6.13
2022-10-19T03:47:52.739Z,6.63
2022-10-19T03:51:00.764Z,8.00
2022-10-19T03:54:14.685Z,8.00
2022-10-19T03:57:22.226Z,7.95
2022-10-19T04:00:26.947Z,8.68
2022-10-19T04:03:31.996Z,8.65
2022-10-19T04:06:40.266Z,8.13
2022-10-19T04:09:45.211Z,8.45
2022-10-19T04:12:53.786Z,7.70
2022-10-19T04:15:59.510Z,8.57
2022-10-19T04:19:04.950Z,8.27
2022-10-19T04:22:10.075Z,8.10
2022-10-19T04:25:14.787Z,8.25
2022-10-19T04:28:19.714Z,9.13
2022-10-19T04:31:24.723Z,8.07
2022-10-19T04:34:29.468Z,8.48
2022-10-19T04:37:35.090Z,8.80
2022-10-19T04:40:40.208Z,8.77
2022-10-19T04:43:45.378Z,8.65
2022-10-19T04:46:50.301Z,8.63
2022-10-19T04:49:55.270Z,8.27
2022-10-19T04:53:00.188Z,8.23
2022-10-19T04:56:08.349Z,8.32
2022-10-19T04:59:13.371Z,8.32
2022-10-19T05:02:18.521Z,9.00
2022-10-19T05:05:24.382Z,8.73
2022-10-19T05:08:32.322Z,8.48
2022-10-19T05:11:37.301Z,9.02
2022-10-19T05:14:43.028Z,9.95
2022-10-19T05:17:48.082Z,9.45
2022-10-19T05:21:13.485Z,9.93
2022-10-19T05:24:18.634Z,9.40
2022-10-19T05:27:23.878Z,10.15
2022-10-19T05:30:30.562Z,9.73
2022-10-19T05:33:36.221Z,9.63
2022-10-19T05:36:41.420Z,9.20
2022-10-19T05:39:46.478Z,9.60
2022-10-19T05:42:51.456Z,9.93
2022-10-19T05:45:56.534Z,10.88
2022-10-19T05:49:01.805Z,10.32
2022-10-19T05:52:07.079Z,10.55
2022-10-19T05:55:12.331Z,10.82
2022-10-19T05:58:17.392Z,11.02
2022-10-19T06:01:22.679Z,10.65
2022-10-19T06:04:27.541Z,10.85
2022-10-19T06:07:35.644Z,11.05
2022-10-19T06:10:40.713Z,11.85
2022-10-19T06:13:47.536Z,11.95
2022-10-19T06:16:54.632Z,9.18
2022-10-19T06:19:59.978Z,10.00
2022-10-19T06:23:05.885Z,8.80
2022-10-19T06:26:13.949Z,9.07
2022-10-19T06:29:21.753Z,9.88
2022-10-19T06:32:28.587Z,10.10
2022-10-19T06:35:34.083Z,10.45
2022-10-19T06:38:43.733Z,10.65
2022-10-19T06:41:48.998Z,10.90
2022-10-19T06:44:57.041Z,11.00
2022-10-19T06:48:05.013Z,10.80
2022-10-19T06:51:13.665Z,10.63
2022-10-19T06:54:18.724Z,11.15
2022-10-19T06:57:24.196Z,9.68
2022-10-19T07:00:30.128Z,10.73
2022-10-19T07:03:36.625Z,10.05
2022-10-19T07:06:41.946Z,8.68
2022-10-19T07:09:48.635Z,8.60
2022-10-19T07:12:53.420Z,9.25
2022-10-19T07:16:03.518Z,8.70
2022-10-19T07:19:08.329Z,8.63
2022-10-19T07:22:17.351Z,7.78
2022-10-19T07:25:25.385Z,7.60
2022-10-19T07:28:30.931Z,7.60
2022-10-19T07:31:35.808Z,7.57
2022-10-19T07:34:40.847Z,6.80
2022-10-19T07:37:45.892Z,6.35
2022-10-19T07:40:51.296Z,5.80
2022-10-19T07:43:58.001Z,5.82
2022-10-19T07:47:04.795Z,5.95
2022-10-19T07:50:12.547Z,5.50
2022-10-19T07:53:17.600Z,4.63
2022-10-19T07:56:24.946Z,4.45
2022-10-19T07:59:30.041Z,4.32
2022-10-19T08:02:45.854Z,3.90
2022-10-19T08:06:13.563Z,3.92
2022-10-19T08:09:47.290Z,3.88
2022-10-19T08:12:44.612Z,3.65
2022-10-19T08:15:49.791Z,3.58
2022-10-19T08:19:01.400Z,3.60
2022-10-19T08:22:06.332Z,3.85
2022-10-19T08:25:11.179Z,3.40
2022-10-19T08:28:16.098Z,3.25
2022-10-19T08:31:23.599Z,3.30
2022-10-19T08:34:28.280Z,3.47
2022-10-19T08:37:44.213Z,3.40
2022-10-19T08:40:50.245Z,3.72
2022-10-19T08:44:24.099Z,3.05
2022-10-19T08:47:55.699Z,3.85
2022-10-19T08:51:01.416Z,4.13
2022-10-19T08:54:12.175Z,5.80
2022-10-19T08:57:43.832Z,4.40
2022-10-19T09:01:18.904Z,5.00
2022-10-19T09:04:50.886Z,5.05
2022-10-19T09:07:56.100Z,5.53
2022-10-19T09:11:00.974Z,5.45
2022-10-19T09:14:28.363Z,4.93
2022-10-19T09:17:33.753Z,5.15
2022-10-19T09:20:41.741Z,5.00
2022-10-19T09:24:16.354Z,5.50
2022-10-19T09:27:29.585Z,4.75
2022-10-19T09:30:35.538Z,5.05
2022-10-19T09:33:42.187Z,5.35
2022-10-19T09:36:53.119Z,4.65
2022-10-19T09:39:57.790Z,4.20
2022-10-19T09:43:19.474Z,4.30
2022-10-19T09:46:52.181Z,4.68
2022-10-19T09:50:15.646Z,5.82
2022-10-19T09:53:21.154Z,4.95
2022-10-19T09:56:28.191Z,5.05
2022-10-19T09:59:37.216Z,11.60
2022-10-19T10:02:50.424Z,6.78
2022-10-19T10:06:06.768Z,4.60
2022-10-19T10:09:26.152Z,5.00
2022-10-19T10:12:31.099Z,4.15
2022-10-19T10:15:43.854Z,4.72
2022-10-19T10:19:08.133Z,5.40
2022-10-19T10:22:29.506Z,5.78
2022-10-19T10:25:36.644Z,5.20
2022-10-19T10:28:49.091Z,4.78
2022-10-19T10:32:20.971Z,4.63
2022-10-19T10:35:36.346Z,4.00
2022-10-19T10:38:46.204Z,3.92
2022-10-19T10:41:51.254Z,3.47
2022-10-19T10:44:56.762Z,3.63
2022-10-19T10:48:26.114Z,3.70
2022-10-19T10:51:37.395Z,2.47
2022-10-19T10:55:01.738Z,1.90
2022-10-19T10:58:34.802Z,2.20
2022-10-19T11:02:10.926Z,1.98
2022-10-19T11:05:38.730Z,2.00
2022-10-19T11:09:09.459Z,1.95
2022-10-19T11:12:16.530Z,2.10
2022-10-19T11:15:47.290Z,1.77
2022-10-19T11:19:00.511Z,2.13
2022-10-19T11:22:44.879Z,3.05
2022-10-19T11:25:56.966Z,9.20
2022-10-19T11:29:47.719Z,8.65
2022-10-19T11:33:11.242Z,6.68
2022-10-19T11:36:45.588Z,3.80
2022-10-19T11:40:21.191Z,2.05
2022-10-19T11:43:54.874Z,1.60
2022-10-19T11:47:34.438Z,1.80
2022-10-19T11:51:04.119Z,1.58
2022-10-19T11:55:06.422Z,1.75
2022-10-19T11:59:15.278Z,2.15
2022-10-19T12:03:04.109Z,2.90
2022-10-19T12:06:38.125Z,1.67
2022-10-19T12:10:10.618Z,2.67
2022-10-19T12:13:21.713Z,2.10
2022-10-19T12:16:49.977Z,4.43
2022-10-19T12:19:58.911Z,3.95
2022-10-19T12:23:21.418Z,2.33
2022-10-19T12:26:29.190Z,1.70
2022-10-19T12:29:37.899Z,1.77
2022-10-19T12:33:12.638Z,1.60
2022-10-19T12:36:46.688Z,2.47
2022-10-19T12:40:13.365Z,2.60
2022-10-19T12:43:58.853Z,2.20
2022-10-19T12:47:19.577Z,1.30
2022-10-19T12:50:49.462Z,1.30
2022-10-19T12:54:08.423Z,2.13
2022-10-19T12:57:40.156Z,1.70
2022-10-19T13:01:02.176Z,1.60
2022-10-19T13:04:21.075Z,2.00
2022-10-19T13:07:27.477Z,1.48
2022-10-19T13:10:33.826Z,1.60
2022-10-19T13:13:59.052Z,1.38
2022-10-19T13:17:04.458Z,1.60
2022-10-19T13:20:15.585Z,1.10
2022-10-19T13:23:26.482Z,1.00
2022-10-19T13:26:35.529Z,1.30
2022-10-19T13:29:42.774Z,1.20
2022-10-19T13:32:47.864Z,1.30
2022-10-19T13:35:58.570Z,1.70
2022-10-19T13:39:07.910Z,1.15
2022-10-19T13:42:39.000Z,1.60
2022-10-19T13:45:44.774Z,1.20
2022-10-19T13:49:04.846Z,1.35
2022-10-19T13:52:25.157Z,1.58
2022-10-19T13:56:08.897Z,1.50
2022-10-19T13:59:32.441Z,4.80
2022-10-19T14:03:06.602Z,4.07
2022-10-19T14:06:23.415Z,6.97
2022-10-19T14:10:13.438Z,4.22
2022-10-19T14:13:22.232Z,6.80
2022-10-19T14:16:27.590Z,5.60
2022-10-19T14:19:44.820Z,4.35
2022-10-19T14:22:49.858Z,2.50
2022-10-19T14:26:22.350Z,3.33
2022-10-19T14:29:27.763Z,3.70
2022-10-19T14:32:34.366Z,3.90
2022-10-19T14:35:41.942Z,4.63
2022-10-19T14:38:49.974Z,3.42
2022-10-19T14:41:55.762Z,2.60
2022-10-19T14:45:01.615Z,3.30
2022-10-19T14:48:15.424Z,2.50
2022-10-19T14:51:33.140Z,2.20
2022-10-19T14:54:42.632Z,3.47
2022-10-19T14:57:50.732Z,3.15
2022-10-19T15:00:55.725Z,2.10
2022-10-19T15:04:00.606Z,2.97
2022-10-19T15:07:17.027Z,4.60
2022-10-19T15:10:29.449Z,3.33
2022-10-19T15:13:41.747Z,3.33
2022-10-19T15:16:55.701Z,3.38
2022-10-19T15:20:01.433Z,2.72
2022-10-19T15:23:39.990Z,4.50
2022-10-19T15:26:57.889Z,2.90
2022-10-19T15:30:17.843Z,3.00
2022-10-19T15:33:22.784Z,2.90
2022-10-19T15:36:30.466Z,2.92
2022-10-19T15:39:41.160Z,3.05
2022-10-19T15:42:48.957Z,2.78
2022-10-19T15:47:15.799Z,2.40
2022-10-19T15:50:45.874Z,2.90
2022-10-19T15:54:00.241Z,3.00
2022-10-19T15:57:28.366Z,3.42
2022-10-19T16:00:33.784Z,2.97
2022-10-19T16:03:38.958Z,3.72
2022-10-19T16:06:45.407Z,3.60
2022-10-19T16:09:50.380Z,3.45
2022-10-19T16:12:55.396Z,3.30
2022-10-19T16:16:11.178Z,3.30
2022-10-19T16:19:16.534Z,3.53
2022-10-19T16:22:21.321Z,3.60
2022-10-19T16:25:26.304Z,3.60
2022-10-19T16:28:31.394Z,4.07
2022-10-19T16:31:37.986Z,3.85
2022-10-19T16:34:43.180Z,4.38
2022-10-19T16:37:48.407Z,3.92
2022-10-19T16:40:53.839Z,4.50
2022-10-19T16:43:58.990Z,5.03
2022-10-19T16:47:06.074Z,7.43
2022-10-19T16:50:11.916Z,7.20
2022-10-19T16:53:17.203Z,7.75
2022-10-19T16:56:22.848Z,7.95
2022-10-19T16:59:27.920Z,8.88
2022-10-19T17:02:33.187Z,7.25
2022-10-19T17:05:39.186Z,7.72
2022-10-19T17:09:20.185Z,7.50
2022-10-19T17:12:10.188Z,5.68
2022-10-19T17:15:41.328Z,6.30
2022-10-19T17:18:40.151Z,7.28
2022-10-19T17:21:45.190Z,6.45
2022-10-19T17:24:49.898Z,6.25
2022-10-19T17:27:54.869Z,5.43
2022-10-19T17:31:09.162Z,6.43
2022-10-19T17:34:14.865Z,5.43
2022-10-19T17:37:20.281Z,5.05
2022-10-19T17:40:25.377Z,5.68
2022-10-19T17:43:30.815Z,5.22
2022-10-19T17:46:36.010Z,5.13
2022-10-19T17:49:41.399Z,5.20
2022-10-19T17:52:46.834Z,5.05
2022-10-19T17:55:52.664Z,4.60
2022-10-19T17:58:58.840Z,4.32
2022-10-19T18:02:06.368Z,4.30
2022-10-19T18:05:11.456Z,3.90
2022-10-19T18:08:16.636Z,3.60
2022-10-19T18:11:28.852Z,3.92
2022-10-19T18:14:33.873Z,3.88
2022-10-19T18:17:39.494Z,4.10
2022-10-19T18:20:46.299Z,4.22
2022-10-19T18:23:53.718Z,4.47
2022-10-19T18:26:59.127Z,3.95
2022-10-19T18:30:04.961Z,3.58
2022-10-19T18:33:10.853Z,2.85
2022-10-19T18:36:16.330Z,2.38
2022-10-19T18:39:23.014Z,2.70
2022-10-19T18:42:29.169Z,2.80
2022-10-19T18:45:34.469Z,3.00
2022-10-19T18:48:40.397Z,3.17
2022-10-19T18:51:50.722Z,3.30
2022-10-19T18:54:59.659Z,2.97
2022-10-19T18:58:04.919Z,3.05
2022-10-19T19:01:16.073Z,3.30
2022-10-19T19:04:21.381Z,3.67
2022-10-19T19:07:26.912Z,3.05
2022-10-19T19:10:31.971Z,3.30
2022-10-19T19:13:38.097Z,3.75
2022-10-19T19:16:45.095Z,4.03
2022-10-19T19:19:50.677Z,4.78
2022-10-19T19:22:56.265Z,4.55
2022-10-19T19:26:03.183Z,4.50
2022-10-19T19:29:08.637Z,5.07
2022-10-19T19:32:13.810Z,4.90
2022-10-19T19:35:19.082Z,4.32
2022-10-19T19:38:24.026Z,5.60
2022-10-19T19:41:31.437Z,6.05
2022-10-19T19:44:36.523Z,6.30
2022-10-19T19:47:41.699Z,6.20
2022-10-19T19:50:47.626Z,5.68
2022-10-19T19:53:52.881Z,5.90
2022-10-19T19:56:58.027Z,5.78
2022-10-19T20:00:04.072Z,6.55
2022-10-19T20:03:16.603Z,6.45
2022-10-19T20:06:25.052Z,6.25
2022-10-19T20:09:31.278Z,6.68
2022-10-19T20:12:36.541Z,6.47
2022-10-19T20:15:41.532Z,5.88
2022-10-19T20:18:49.995Z,6.43
2022-10-19T20:21:56.758Z,7.88
2022-10-19T20:25:02.035Z,6.95
2022-10-19T20:28:07.587Z,6.40
2022-10-19T20:31:13.844Z,6.60
2022-10-19T20:34:21.896Z,7.28
2022-10-19T20:37:30.240Z,7.35
2022-10-19T20:40:37.911Z,7.00
2022-10-19T20:43:43.305Z,7.20
2022-10-19T20:46:50.386Z,7.28
2022-10-19T20:49:55.577Z,7.43
2022-10-19T20:53:01.005Z,7.63
2022-10-19T20:56:10.942Z,7.25
2022-10-19T20:59:19.772Z,8.38
2022-10-19T21:02:25.455Z,6.95
2022-10-19T21:05:30.872Z,8.18
2022-10-19T21:08:37.264Z,7.88
2022-10-19T21:11:43.907Z,7.57
2022-10-19T21:14:49.392Z,7.57
2022-10-19T21:17:54.014Z,8.23
2022-10-19T21:20:58.598Z,7.35
2022-10-19T21:24:11.750Z,7.65
2022-10-19T21:27:16.359Z,8.07
2022-10-19T21:30:21.253Z,7.40
2022-10-19T21:33:26.133Z,7.93
2022-10-19T21:36:30.722Z,7.68
2022-10-19T21:39:36.403Z,8.10
2022-10-19T21:42:40.986Z,7.57
2022-10-19T21:45:45.852Z,7.35
2022-10-19T21:48:51.458Z,7.57
2022-10-19T21:51:56.371Z,7.07
2022-10-19T21:55:01.450Z,7.43
2022-10-19T21:58:06.811Z,7.13
2022-10-19T22:01:11.933Z,6.55
2022-10-19T22:04:18.114Z,6.03
2022-10-19T22:07:22.963Z,6.70
2022-10-19T22:10:28.623Z,6.68
2022-10-19T22:13:35.557Z,6.65
2022-10-19T22:16:41.594Z,6.05
2022-10-19T22:19:46.714Z,5.70
2022-10-19T22:22:54.224Z,6.50
2022-10-19T22:26:00.228Z,5.88
2022-10-19T22:29:07.238Z,6.03
2022-10-19T22:32:12.227Z,5.57
2022-10-19T22:35:17.209Z,5.28
2022-10-19T22:38:22.573Z,5.93
2022-10-19T22:41:27.449Z,6.38
2022-10-19T22:44:32.522Z,4.90
2022-10-19T22:47:37.833Z,4.43
2022-10-19T22:50:43.101Z,4.30
2022-10-19T22:53:48.316Z,4.00
2022-10-19T22:56:53.605Z,3.72
2022-10-19T22:59:58.088Z,4.00
2022-10-19T23:03:03.090Z,3.70
2022-10-19T23:06:12.872Z,3.50
2022-10-19T23:09:17.634Z,3.63
2022-10-19T23:12:22.742Z,3.10
2022-10-19T23:15:27.782Z,3.17
2022-10-19T23:18:34.892Z,2.63
2022-10-19T23:21:40.145Z,2.60
2022-10-19T23:24:44.923Z,2.40
2022-10-19T23:27:49.630Z,2.05
2022-10-19T23:30:57.037Z,2.08
2022-10-19T23:34:01.878Z,1.88
2022-10-19T23:37:06.651Z,2.10
2022-10-19T23:40:12.123Z,1.65
2022-10-19T23:43:16.986Z,1.70
2022-10-19T23:46:22.000Z,1.90
2022-10-19T23:49:26.851Z,1.85
2022-10-19T23:52:31.340Z,1.77
2022-10-19T23:55:36.289Z,2.03
2022-10-19T23:58:41.349Z,1.90
